Cartwright, Oklahoma
Current Conditions -  °F | °C
As of 2:35 PM on Wednesday 26 Nov 2014 (Local Time) from KGYI Reporting Station
Clear Clear  
Wind Chill: 62°   Ceiling: Unl
Heat Index: 62°   Visibility: 10mi
Dew Point: 37°   Wind: 9mph
Humidity: 40%   Direction: 300°WNW
Pressure: 30.19"   Gusts: 16mph
Location:  33.85°N, 96.56°W
Report Text: KGYI 262035Z AUTO 30008G14KT 280V340 10SM CLR 17/03 A3019 RMK AO2 T01660028
Loading
Personal Weather Stations






























Interactive Weather Map New forecast layout! Learn more

10-Day Weather Forecast

Advertisements
Track Severe Weather on mobile